Eastlawn, Mississippi
Current Conditions -  °F | °C
As of 8:53 PM on Sunday 21 Dec 2014 (Local Time) from KPQL Reporting Station
Haze Haze  
Wind Chill: 56°   Ceiling: 700
Heat Index: 56°   Visibility: 6mi
Dew Point: 54°   Wind: 6mph
Humidity: 93%   Direction: 80°E
Pressure: 29.99"   Gusts: NA
Location:  30.3649°N, 88.5432°W
Report Text: KPQL 220253Z AUTO 08005KT 6SM BR OVC007 13/12 A2999 RMK AO2 SLP155 T01330122 58007 TSNO
Loading
Personal Weather Stations






























Interactive Weather Map New forecast layout! Learn more

10-Day Weather Forecast

Advertisements
Track Severe Weather on mobile